createdAt,value
2018-02-24T00:00:04.108Z,99493.48
2018-02-24T00:02:35.925Z,99498.16
2018-02-24T00:05:07.581Z,99498.97
2018-02-24T00:07:39.572Z,99496.23
2018-02-24T00:10:11.601Z,99503.21
2018-02-24T00:12:42.735Z,99502.44
2018-02-24T00:15:14.584Z,99498.78
2018-02-24T00:17:46.164Z,99504.31
2018-02-24T00:20:17.984Z,99501.64
2018-02-24T00:22:51.802Z,99501.77
2018-02-24T00:25:22.866Z,99500.35
2018-02-24T00:27:54.974Z,99497.67
2018-02-24T00:30:26.811Z,99516.00
2018-02-24T00:32:58.283Z,99510.22
2018-02-24T00:35:29.748Z,99519.96
2018-02-24T00:38:02.451Z,99513.45
2018-02-24T00:40:34.727Z,99516.97
2018-02-24T00:43:05.841Z,99528.69
2018-02-24T00:45:36.996Z,99523.47
2018-02-24T00:48:08.344Z,99535.39
2018-02-24T00:50:40.352Z,99536.42
2018-02-24T00:53:11.978Z,99536.92
2018-02-24T00:55:43.531Z,99541.70
2018-02-24T00:58:14.786Z,99540.86
2018-02-24T01:00:46.237Z,99543.47
2018-02-24T01:03:17.656Z,99544.48
2018-02-24T01:05:50.484Z,99542.71
2018-02-24T01:08:23.300Z,99550.87
2018-02-24T01:10:55.893Z,99537.11
2018-02-24T01:13:27.504Z,99535.35
2018-02-24T01:15:59.816Z,99532.47
2018-02-24T01:18:32.048Z,99527.63
2018-02-24T01:21:03.838Z,99520.83
2018-02-24T01:23:35.530Z,99520.66
2018-02-24T01:26:07.337Z,99517.13
2018-02-24T01:28:39.335Z,99514.95
2018-02-24T01:31:10.867Z,99517.09
2018-02-24T01:33:42.540Z,99516.80
2018-02-24T01:36:14.481Z,99513.52
2018-02-24T01:38:52.307Z,99511.75
2018-02-24T01:41:24.323Z,99514.73
2018-02-24T01:43:56.028Z,99506.04
2018-02-24T01:46:27.577Z,99513.69
2018-02-24T01:49:00.718Z,99513.23
2018-02-24T01:51:31.753Z,99509.53
2018-02-24T01:54:03.360Z,99509.72
2018-02-24T01:56:35.243Z,99506.86
2018-02-24T01:59:07.631Z,99511.61
2018-02-24T02:01:39.615Z,99513.97
2018-02-24T02:04:11.503Z,99518.67
2018-02-24T02:06:43.384Z,99516.88
2018-02-24T02:09:14.800Z,99515.88
2018-02-24T02:11:50.249Z,99521.44
2018-02-24T02:14:29.927Z,99520.63
2018-02-24T02:17:02.435Z,99524.95
2018-02-24T02:19:34.166Z,99534.27
2018-02-24T02:22:05.738Z,99530.66
2018-02-24T02:24:37.939Z,99534.06
2018-02-24T02:27:09.564Z,99527.17
2018-02-24T02:29:41.088Z,99532.61
2018-02-24T02:32:12.467Z,99529.82
2018-02-24T02:34:44.953Z,99534.82
2018-02-24T02:37:16.846Z,99529.30
2018-02-24T02:39:48.433Z,99528.66
2018-02-24T02:42:20.353Z,99525.82
2018-02-24T02:44:51.975Z,99525.09
2018-02-24T02:47:23.613Z,99526.91
2018-02-24T02:49:55.335Z,99529.09
2018-02-24T02:52:27.268Z,99528.23
2018-02-24T02:54:59.214Z,99533.07
2018-02-24T02:57:31.085Z,99533.59
2018-02-24T03:00:03.294Z,99526.70
2018-02-24T03:02:34.951Z,99529.59
2018-02-24T03:05:06.573Z,99524.36
2018-02-24T03:07:39.269Z,99525.33
2018-02-24T03:10:10.744Z,99527.05
2018-02-24T03:12:41.831Z,99530.83
2018-02-24T03:15:13.775Z,99531.88
2018-02-24T03:17:45.822Z,99528.43
2018-02-24T03:20:17.724Z,99537.20
2018-02-24T03:22:49.559Z,99542.47
2018-02-24T03:25:21.663Z,99544.72
2018-02-24T03:27:53.615Z,99539.56
2018-02-24T03:30:25.076Z,99542.39
2018-02-24T03:32:57.151Z,99543.46
2018-02-24T03:35:28.811Z,99543.04
2018-02-24T03:38:00.577Z,99551.23
2018-02-24T03:40:32.835Z,99555.55
2018-02-24T03:43:04.699Z,99556.40
2018-02-24T03:45:36.762Z,99559.39
2018-02-24T03:48:09.104Z,99562.84
2018-02-24T03:50:46.551Z,99564.55
2018-02-24T03:53:18.471Z,99561.58
2018-02-24T03:55:50.718Z,99559.77
2018-02-24T03:58:22.126Z,99566.23
2018-02-24T04:00:53.756Z,99568.38
2018-02-24T04:03:29.974Z,99576.88
2018-02-24T04:06:01.589Z,99569.54
2018-02-24T04:08:33.240Z,99587.59
2018-02-24T04:11:05.052Z,99580.23
2018-02-24T04:13:36.622Z,99590.48
2018-02-24T04:16:08.843Z,99596.14
2018-02-24T04:18:40.836Z,99595.41
2018-02-24T04:21:12.525Z,99595.84
2018-02-24T04:23:44.485Z,99608.28
2018-02-24T04:26:16.203Z,99604.88
2018-02-24T04:28:48.172Z,99604.79
2018-02-24T04:31:19.882Z,99603.16
2018-02-24T04:33:51.382Z,99598.52
2018-02-24T04:36:23.863Z,99604.86
2018-02-24T04:38:55.564Z,99597.67
2018-02-24T04:41:27.333Z,99605.87
2018-02-24T04:44:00.511Z,99603.22
2018-02-24T04:46:31.901Z,99610.13
2018-02-24T04:49:03.709Z,99607.55
2018-02-24T04:51:35.931Z,99610.56
2018-02-24T04:54:07.597Z,99613.15
2018-02-24T04:56:39.296Z,99613.20
2018-02-24T04:59:11.341Z,99616.62
2018-02-24T05:01:43.094Z,99611.42
2018-02-24T05:04:14.936Z,99617.00
2018-02-24T05:06:47.124Z,99614.34
2018-02-24T05:09:18.892Z,99608.80
2018-02-24T05:11:50.368Z,99617.05
2018-02-24T05:14:22.266Z,99618.31
2018-02-24T05:16:53.783Z,99619.16
2018-02-24T05:19:25.476Z,99623.89
2018-02-24T05:21:57.452Z,99627.34
2018-02-24T05:24:29.366Z,99629.98
2018-02-24T05:27:01.337Z,99643.31
2018-02-24T05:29:33.475Z,99637.68
2018-02-24T05:32:05.468Z,99643.25
2018-02-24T05:34:37.591Z,99648.92
2018-02-24T05:37:09.548Z,99652.78
2018-02-24T05:39:40.953Z,99653.65
2018-02-24T05:42:12.601Z,99657.08
2018-02-24T05:44:45.016Z,99655.79
2018-02-24T05:47:16.595Z,99663.13
2018-02-24T05:49:49.487Z,99660.52
2018-02-24T05:52:21.019Z,99658.73
2018-02-24T05:54:52.584Z,99652.34
2018-02-24T05:57:24.742Z,99651.50
2018-02-24T05:59:56.595Z,99651.06
2018-02-24T06:02:29.252Z,99658.69
2018-02-24T06:05:01.416Z,99649.30
2018-02-24T06:07:33.249Z,99651.93
2018-02-24T06:10:04.998Z,99646.75
2018-02-24T06:12:37.144Z,99663.06
2018-02-24T06:15:08.846Z,99666.02
2018-02-24T06:17:40.576Z,99663.45
2018-02-24T06:20:12.853Z,99662.55
2018-02-24T06:22:44.764Z,99663.97
2018-02-24T06:25:16.571Z,99666.12
2018-02-24T06:27:48.480Z,99669.52
2018-02-24T06:30:20.156Z,99680.76
2018-02-24T06:32:51.813Z,99675.59
2018-02-24T06:35:23.700Z,99681.14
2018-02-24T06:37:55.519Z,99677.94
2018-02-24T06:40:29.363Z,99685.06
2018-02-24T06:43:02.314Z,99676.28
2018-02-24T06:45:34.346Z,99687.00
2018-02-24T06:48:06.294Z,99695.34
2018-02-24T06:50:38.165Z,99695.33
2018-02-24T06:53:10.174Z,99695.19
2018-02-24T06:55:42.378Z,99700.78
2018-02-24T06:58:13.994Z,99706.83
2018-02-24T07:00:46.069Z,99712.81
2018-02-24T07:03:18.064Z,99714.62
2018-02-24T07:05:49.974Z,99713.34
2018-02-24T07:08:21.445Z,99715.21
2018-02-24T07:10:54.003Z,99717.36
2018-02-24T07:13:26.112Z,99714.75
2018-02-24T07:15:58.038Z,99713.94
2018-02-24T07:18:30.101Z,99710.91
2018-02-24T07:21:07.994Z,99706.58
2018-02-24T07:23:39.686Z,99705.63
2018-02-24T07:26:11.958Z,99704.39
2018-02-24T07:28:43.543Z,99708.70
2018-02-24T07:31:15.056Z,99714.25
2018-02-24T07:33:46.970Z,99720.62
2018-02-24T07:36:18.425Z,99716.69
2018-02-24T07:38:50.199Z,99722.36
2018-02-24T07:41:21.293Z,99726.23
2018-02-24T07:43:53.264Z,99720.13
2018-02-24T07:46:24.428Z,99743.39
2018-02-24T07:48:56.859Z,99737.61
2018-02-24T07:51:32.749Z,99741.60
2018-02-24T07:54:03.850Z,99738.87
2018-02-24T07:56:35.865Z,99737.16
2018-02-24T07:59:07.291Z,99737.15
2018-02-24T08:01:39.164Z,99744.30
2018-02-24T08:04:11.010Z,99741.38
2018-02-24T08:06:42.714Z,99742.70
2018-02-24T08:09:14.904Z,99737.94
2018-02-24T08:11:51.352Z,99740.94
2018-02-24T08:14:22.782Z,99740.05
2018-02-24T08:16:54.820Z,99741.69
2018-02-24T08:19:25.930Z,99737.72
2018-02-24T08:21:58.152Z,99732.75
2018-02-24T08:24:30.109Z,99741.37
2018-02-24T08:27:02.871Z,99735.09
2018-02-24T08:29:34.379Z,99732.31
2018-02-24T08:32:05.861Z,99743.48
2018-02-24T08:34:37.212Z,99745.19
2018-02-24T08:37:09.639Z,99740.56
2018-02-24T08:39:41.152Z,99742.77
2018-02-24T08:42:13.360Z,99748.19
2018-02-24T08:44:44.781Z,99740.93
2018-02-24T08:47:15.862Z,99744.08
2018-02-24T08:49:47.957Z,99741.47
2018-02-24T08:52:20.094Z,99739.12
2018-02-24T08:54:51.827Z,99744.16
2018-02-24T08:57:22.984Z,99750.08
2018-02-24T08:59:54.377Z,99744.52
2018-02-24T09:02:25.255Z,99746.61
2018-02-24T09:04:56.982Z,99749.97
2018-02-24T09:07:29.237Z,99751.42
2018-02-24T09:10:00.086Z,99754.36
2018-02-24T09:12:31.234Z,99744.47
2018-02-24T09:15:03.725Z,99749.16
2018-02-24T09:17:34.900Z,99742.73
2018-02-24T09:20:06.597Z,99740.62
2018-02-24T09:22:38.290Z,99739.52
2018-02-24T09:25:10.355Z,99740.84
2018-02-24T09:27:41.505Z,99746.05
2018-02-24T09:30:12.749Z,99742.14
2018-02-24T09:32:43.561Z,99741.66
2018-02-24T09:35:15.257Z,99744.23
2018-02-24T09:37:46.058Z,99749.55
2018-02-24T09:40:18.209Z,99744.27
2018-02-24T09:42:49.345Z,99744.58
2018-02-24T09:45:21.078Z,99741.47
2018-02-24T09:47:52.724Z,99751.09
2018-02-24T09:50:23.549Z,99745.00
2018-02-24T09:52:55.718Z,99751.80
2018-02-24T09:55:26.648Z,99747.52
2018-02-24T09:57:57.457Z,99750.88
2018-02-24T10:00:29.212Z,99752.41
2018-02-24T10:03:00.940Z,99741.61
2018-02-24T10:05:32.560Z,99749.56
2018-02-24T10:08:03.425Z,99744.14
2018-02-24T10:10:34.501Z,99749.58
2018-02-24T10:13:05.253Z,99748.39
2018-02-24T10:15:36.196Z,99741.06
2018-02-24T10:18:07.282Z,99739.68
2018-02-24T10:20:38.033Z,99749.97
2018-02-24T10:23:08.800Z,99747.05
2018-02-24T10:25:40.481Z,99735.45
2018-02-24T10:28:11.376Z,99738.25
2018-02-24T10:30:42.222Z,99748.97
2018-02-24T10:33:14.445Z,99735.67
2018-02-24T10:35:45.634Z,99741.59
2018-02-24T10:38:16.652Z,99738.53
2018-02-24T10:40:47.464Z,99744.34
2018-02-24T10:43:18.296Z,99740.47
2018-02-24T10:45:49.579Z,99743.48
2018-02-24T10:48:20.392Z,99736.27
2018-02-24T10:50:51.163Z,99744.40
2018-02-24T10:53:22.890Z,99739.86
2018-02-24T10:55:54.257Z,99747.16
2018-02-24T10:58:25.025Z,99740.80
2018-02-24T11:00:58.112Z,99746.73
2018-02-24T11:03:28.934Z,99746.16
2018-02-24T11:06:00.877Z,99745.70
2018-02-24T11:08:31.705Z,99747.70
2018-02-24T11:11:02.528Z,99743.16
2018-02-24T11:13:33.651Z,99742.19
2018-02-24T11:16:04.494Z,99736.41
2018-02-24T11:18:35.272Z,99731.04
2018-02-24T11:21:06.393Z,99730.84
2018-02-24T11:23:37.197Z,99723.59
2018-02-24T11:26:08.018Z,99725.84
2018-02-24T11:28:38.950Z,99733.84
2018-02-24T11:31:09.753Z,99730.16
2018-02-24T11:33:40.894Z,99720.86
2018-02-24T11:36:12.589Z,99712.95
2018-02-24T11:38:44.817Z,99718.95
2018-02-24T11:41:15.942Z,99711.80
2018-02-24T11:43:46.784Z,99715.38
2018-02-24T11:46:18.231Z,99718.05
2018-02-24T11:48:49.348Z,99714.75
2018-02-24T11:51:20.164Z,99713.07
2018-02-24T11:53:50.957Z,99716.88
2018-02-24T11:56:21.997Z,99717.80
2018-02-24T11:58:52.800Z,99722.62
2018-02-24T12:01:23.894Z,99714.86
2018-02-24T12:03:54.721Z,99708.62
2018-02-24T12:06:25.617Z,99705.15
2018-02-24T12:08:56.794Z,99701.05
2018-02-24T12:11:27.767Z,99704.94
2018-02-24T12:13:58.569Z,99695.23
2018-02-24T12:16:29.801Z,99691.36
2018-02-24T12:19:00.602Z,99690.72
2018-02-24T12:21:31.467Z,99694.38
2018-02-24T12:24:03.686Z,99680.97
2018-02-24T12:26:34.453Z,99682.84
2018-02-24T12:29:07.796Z,99684.53
2018-02-24T12:31:40.017Z,99675.59
2018-02-24T12:34:10.761Z,99679.69
2018-02-24T12:36:41.557Z,99672.30
2018-02-24T12:39:12.936Z,99676.03
2018-02-24T12:41:43.756Z,99662.12
2018-02-24T12:44:14.738Z,99670.34
2018-02-24T12:46:46.049Z,99661.64
2018-02-24T12:49:16.893Z,99655.73
2018-02-24T12:51:48.236Z,99666.16
2018-02-24T12:54:20.198Z,99663.41
2018-02-24T12:56:51.005Z,99661.04
2018-02-24T12:59:21.741Z,99652.70
2018-02-24T13:01:52.822Z,99658.87
2018-02-24T13:04:23.624Z,99653.25
2018-02-24T13:06:55.845Z,99658.56
2018-02-24T13:09:27.160Z,99668.53
2018-02-24T13:11:58.140Z,99663.98
2018-02-24T13:14:29.084Z,99664.94
2018-02-24T13:17:00.904Z,99673.63
2018-02-24T13:19:32.403Z,99669.89
2018-02-24T13:22:03.974Z,99683.88
2018-02-24T13:24:35.013Z,99668.63
2018-02-24T13:27:07.825Z,99669.00
2018-02-24T13:29:39.178Z,99678.66
2018-02-24T13:32:11.342Z,99666.17
2018-02-24T13:34:45.661Z,99657.34
2018-02-24T13:37:17.439Z,99662.28
2018-02-24T13:39:48.224Z,99662.28
2018-02-24T13:42:18.981Z,99660.03
2018-02-24T13:44:49.849Z,99666.61
2018-02-24T13:47:21.434Z,99658.01
2018-02-24T13:49:52.228Z,99658.17
2018-02-24T13:52:23.033Z,99662.28
2018-02-24T13:54:53.935Z,99665.83
2018-02-24T13:57:24.737Z,99650.94
2018-02-24T13:59:55.613Z,99666.89
2018-02-24T14:02:26.459Z,99666.44
2018-02-24T14:04:57.257Z,99669.58
2018-02-24T14:07:29.128Z,99660.25
2018-02-24T14:09:59.873Z,99666.45
2018-02-24T14:12:30.673Z,99680.00
2018-02-24T14:15:04.005Z,99666.66
2018-02-24T14:17:34.883Z,99674.97
2018-02-24T14:20:05.764Z,99670.13
2018-02-24T14:22:36.952Z,99669.52
2018-02-24T14:25:07.765Z,99663.48
2018-02-24T14:27:38.865Z,99671.41
2018-02-24T14:30:09.621Z,99671.78
2018-02-24T14:32:40.481Z,99658.08
2018-02-24T14:35:11.487Z,99660.28
2018-02-24T14:37:42.291Z,99670.16
2018-02-24T14:40:13.106Z,99666.98
2018-02-24T14:42:44.176Z,99663.69
2018-02-24T14:45:14.989Z,99660.44
2018-02-24T14:47:45.749Z,99668.76
2018-02-24T14:50:17.888Z,99665.17
2018-02-24T14:52:48.689Z,99667.38
2018-02-24T14:55:19.448Z,99664.00
2018-02-24T14:57:51.072Z,99661.58
2018-02-24T15:00:22.273Z,99673.80
2018-02-24T15:02:53.467Z,99672.05
2018-02-24T15:05:24.708Z,99663.28
2018-02-24T15:07:56.190Z,99666.91
2018-02-24T15:10:27.473Z,99664.94
2018-02-24T15:12:58.239Z,99668.97
2018-02-24T15:15:30.013Z,99664.31
2018-02-24T15:18:01.334Z,99674.25
2018-02-24T15:20:32.540Z,99671.09
2018-02-24T15:23:03.738Z,99669.47
2018-02-24T15:25:34.643Z,99670.42
2018-02-24T15:28:06.089Z,99671.11
2018-02-24T15:30:37.856Z,99677.30
2018-02-24T15:33:08.668Z,99682.98
2018-02-24T15:35:39.613Z,99676.73
2018-02-24T15:38:10.824Z,99670.32
2018-02-24T15:40:43.543Z,99674.46
2018-02-24T15:43:14.266Z,99675.95
2018-02-24T15:45:45.674Z,99676.66
2018-02-24T15:48:16.761Z,99676.03
2018-02-24T15:50:48.017Z,99674.69
2018-02-24T15:53:19.025Z,99679.48
2018-02-24T15:55:50.693Z,99674.98
2018-02-24T15:58:22.485Z,99680.96
2018-02-24T16:00:53.273Z,99682.05
2018-02-24T16:03:24.314Z,99681.58
2018-02-24T16:05:55.113Z,99683.95
2018-02-24T16:08:25.993Z,99677.91
2018-02-24T16:10:56.923Z,99690.25
2018-02-24T16:13:27.887Z,99688.92
2018-02-24T16:16:02.401Z,99688.69
2018-02-24T16:18:33.198Z,99689.25
2018-02-24T16:21:04.041Z,99690.31
2018-02-24T16:23:35.152Z,99695.38
2018-02-24T16:26:06.002Z,99691.42
2018-02-24T16:28:36.800Z,99698.83
2018-02-24T16:31:08.394Z,99700.97
2018-02-24T16:33:39.218Z,99697.55
2018-02-24T16:36:10.668Z,99707.60
2018-02-24T16:38:41.974Z,99705.02
2018-02-24T16:41:12.793Z,99713.55
2018-02-24T16:43:43.896Z,99711.06
2018-02-24T16:46:14.809Z,99721.88
2018-02-24T16:48:45.710Z,99719.28
2018-02-24T16:51:16.954Z,99728.47
2018-02-24T16:53:47.980Z,99720.11
2018-02-24T16:56:19.090Z,99722.02
2018-02-24T16:58:50.229Z,99728.17
2018-02-24T17:01:21.000Z,99731.82
2018-02-24T17:03:51.748Z,99723.24
2018-02-24T17:06:23.365Z,99735.30
2018-02-24T17:08:54.172Z,99736.48
2018-02-24T17:11:25.438Z,99741.33
2018-02-24T17:13:56.880Z,99748.48
2018-02-24T17:16:28.132Z,99746.07
2018-02-24T17:19:00.489Z,99750.23
2018-02-24T17:21:31.717Z,99754.60
2018-02-24T17:24:04.204Z,99754.60
2018-02-24T17:26:35.842Z,99759.20
2018-02-24T17:29:06.673Z,99758.98
2018-02-24T17:31:37.509Z,99760.25
2018-02-24T17:34:08.585Z,99761.21
2018-02-24T17:36:39.536Z,99766.68
2018-02-24T17:39:10.333Z,99766.20
2018-02-24T17:41:41.457Z,99777.91
2018-02-24T17:44:13.257Z,99783.09
2018-02-24T17:46:44.154Z,99780.36
2018-02-24T17:49:15.831Z,99783.09
2018-02-24T17:51:46.669Z,99785.57
2018-02-24T17:54:17.788Z,99785.33
2018-02-24T17:56:48.596Z,99782.89
2018-02-24T17:59:19.399Z,99788.09
2018-02-24T18:01:50.521Z,99783.95
2018-02-24T18:04:21.449Z,99794.48
2018-02-24T18:06:53.114Z,99800.44
2018-02-24T18:09:24.141Z,99800.05
2018-02-24T18:11:55.745Z,99799.84
2018-02-24T18:14:26.578Z,99797.23
2018-02-24T18:16:57.637Z,99804.08
2018-02-24T18:19:28.421Z,99810.14
2018-02-24T18:21:59.305Z,99813.69
2018-02-24T18:24:30.689Z,99815.46
2018-02-24T18:27:01.458Z,99820.08
2018-02-24T18:29:33.273Z,99820.12
2018-02-24T18:32:04.346Z,99824.77
2018-02-24T18:34:35.245Z,99821.44
2018-02-24T18:37:06.192Z,99824.05
2018-02-24T18:39:37.309Z,99825.63
2018-02-24T18:42:08.905Z,99826.58
2018-02-24T18:44:39.861Z,99836.07
2018-02-24T18:47:11.247Z,99839.13
2018-02-24T18:49:42.055Z,99844.09
2018-02-24T18:52:12.896Z,99841.56
2018-02-24T18:54:44.093Z,99845.42
2018-02-24T18:57:15.184Z,99846.73
2018-02-24T18:59:46.101Z,99846.80
2018-02-24T19:02:17.988Z,99850.68
2018-02-24T19:04:49.492Z,99847.74
2018-02-24T19:07:20.349Z,99854.01
2018-02-24T19:09:51.160Z,99858.17
2018-02-24T19:12:22.258Z,99862.60
2018-02-24T19:14:53.091Z,99866.45
2018-02-24T19:17:24.013Z,99860.28
2018-02-24T19:19:55.213Z,99864.98
2018-02-24T19:22:26.079Z,99868.40
2018-02-24T19:24:57.164Z,99870.89
2018-02-24T19:27:28.081Z,99872.86
2018-02-24T19:29:59.317Z,99872.95
2018-02-24T19:32:30.713Z,99870.78
2018-02-24T19:35:01.881Z,99868.73
2018-02-24T19:37:33.492Z,99865.77
2018-02-24T19:40:05.085Z,99872.52
2018-02-24T19:42:36.168Z,99877.36
2018-02-24T19:45:06.980Z,99881.38
2018-02-24T19:47:38.302Z,99869.95
2018-02-24T19:50:10.436Z,99873.76
2018-02-24T19:52:41.688Z,99878.83
2018-02-24T19:55:12.849Z,99879.52
2018-02-24T19:57:43.986Z,99883.94
2018-02-24T20:00:15.704Z,99883.94
2018-02-24T20:02:47.220Z,99889.28
2018-02-24T20:05:19.419Z,99886.99
2018-02-24T20:07:50.846Z,99893.70
2018-02-24T20:10:21.973Z,99894.41
2018-02-24T20:12:53.133Z,99889.68
2018-02-24T20:15:24.517Z,99896.30
2018-02-24T20:17:55.655Z,99896.78
2018-02-24T20:20:26.902Z,99898.50
2018-02-24T20:22:59.857Z,99896.72
2018-02-24T20:25:31.256Z,99899.26
2018-02-24T20:28:03.013Z,99899.47
2018-02-24T20:30:39.525Z,99899.41
2018-02-24T20:33:10.564Z,99898.36
2018-02-24T20:35:41.981Z,99899.63
2018-02-24T20:38:14.089Z,99900.15
2018-02-24T20:40:45.527Z,99898.23
2018-02-24T20:43:16.991Z,99899.78
2018-02-24T20:45:48.087Z,99907.38
2018-02-24T20:48:19.526Z,99907.23
2018-02-24T20:50:50.698Z,99905.36
2018-02-24T20:53:23.046Z,99911.30
2018-02-24T20:55:55.324Z,99907.98
2018-02-24T20:58:26.505Z,99919.24
2018-02-24T21:00:58.544Z,99916.98
2018-02-24T21:03:30.245Z,99918.25
2018-02-24T21:06:01.580Z,99914.95
2018-02-24T21:08:33.039Z,99914.84
2018-02-24T21:11:04.181Z,99914.55
2018-02-24T21:13:35.589Z,99917.22
2018-02-24T21:16:08.617Z,99921.92
2018-02-24T21:18:39.784Z,99930.94
2018-02-24T21:21:11.189Z,99931.03
2018-02-24T21:23:42.245Z,99925.33
2018-02-24T21:26:13.349Z,99933.98
2018-02-24T21:28:45.284Z,99936.29
2018-02-24T21:31:16.406Z,99938.87
2018-02-24T21:33:48.032Z,99938.03
2018-02-24T21:36:19.846Z,99941.95
2018-02-24T21:38:51.136Z,99945.40
2018-02-24T21:41:22.160Z,99945.79
2018-02-24T21:43:54.133Z,99948.48
2018-02-24T21:46:25.304Z,99956.67
2018-02-24T21:48:56.558Z,99963.63
2018-02-24T21:51:28.064Z,99961.05
2018-02-24T21:53:59.200Z,99963.14
2018-02-24T21:56:30.409Z,99965.70
2018-02-24T21:59:02.369Z,99965.70
2018-02-24T22:01:33.585Z,99970.19
2018-02-24T22:04:04.684Z,99965.75
2018-02-24T22:06:36.153Z,99964.94
2018-02-24T22:09:07.705Z,99964.42
2018-02-24T22:11:38.848Z,99964.86
2018-02-24T22:14:10.893Z,99960.59
2018-02-24T22:16:41.953Z,99963.91
2018-02-24T22:19:13.324Z,99965.77
2018-02-24T22:21:44.388Z,99967.08
2018-02-24T22:24:15.841Z,99969.27
2018-02-24T22:26:46.921Z,99981.84
2018-02-24T22:29:18.383Z,99977.91
2018-02-24T22:31:49.749Z,99979.63
2018-02-24T22:34:20.800Z,99976.09
2018-02-24T22:36:51.958Z,99977.45
2018-02-24T22:39:23.398Z,99984.40
2018-02-24T22:41:55.017Z,99983.99
2018-02-24T22:44:26.381Z,99990.48
2018-02-24T22:46:58.053Z,99983.99
2018-02-24T22:49:29.257Z,99981.33
2018-02-24T22:52:00.671Z,99980.52
2018-02-24T22:54:31.726Z,99980.88
2018-02-24T22:57:02.889Z,99988.69
2018-02-24T22:59:34.200Z,99984.47
2018-02-24T23:02:05.381Z,99980.48
2018-02-24T23:04:36.506Z,99985.26
2018-02-24T23:07:08.593Z,99982.69
2018-02-24T23:09:39.745Z,99980.55
2018-02-24T23:12:11.137Z,99986.20
2018-02-24T23:14:42.201Z,99987.94
2018-02-24T23:17:13.311Z,99991.80
2018-02-24T23:19:45.426Z,99987.47
2018-02-24T23:22:16.559Z,99993.48
2018-02-24T23:24:48.348Z,99983.59
2018-02-24T23:27:20.525Z,99983.11
2018-02-24T23:29:51.593Z,99984.95
2018-02-24T23:32:23.037Z,99984.54
2018-02-24T23:34:54.261Z,99986.27
2018-02-24T23:37:25.947Z,99989.36
2018-02-24T23:39:58.549Z,99989.78
2018-02-24T23:42:29.681Z,99997.06
2018-02-24T23:45:01.281Z,100003.98
2018-02-24T23:47:33.218Z,99997.11
2018-02-24T23:50:05.078Z,99996.65
2018-02-24T23:52:36.258Z,99995.83
2018-02-24T23:55:08.401Z,99994.91
2018-02-24T23:57:42.236Z,99999.58
